sensor_id;sensor_type;location;lat;lon;timestamp;P1;durP1;ratioP1;P2;durP2;ratioP2
57842;SDS011;43673;51.058;3.734;2022-08-20T00:00:31;21.77;;;7.95;;
57842;SDS011;43673;51.058;3.734;2022-08-20T00:03:03;23.23;;;7.57;;
57842;SDS011;43673;51.058;3.734;2022-08-20T00:05:40;20.27;;;6.82;;
57842;SDS011;43673;51.058;3.734;2022-08-20T00:08:08;20.98;;;7.18;;
57842;SDS011;43673;51.058;3.734;2022-08-20T00:10:37;22.02;;;7.10;;
57842;SDS011;43673;51.058;3.734;2022-08-20T00:13:06;24.27;;;7.40;;
57842;SDS011;43673;51.058;3.734;2022-08-20T00:15:34;22.38;;;7.63;;
57842;SDS011;43673;51.058;3.734;2022-08-20T00:18:00;16.13;;;7.38;;
57842;SDS011;43673;51.058;3.734;2022-08-20T00:20:27;20.42;;;8.35;;
57842;SDS011;43673;51.058;3.734;2022-08-20T00:22:55;13.45;;;7.25;;
57842;SDS011;43673;51.058;3.734;2022-08-20T00:25:22;21.30;;;7.30;;
57842;SDS011;43673;51.058;3.734;2022-08-20T00:27:48;15.82;;;7.22;;
57842;SDS011;43673;51.058;3.734;2022-08-20T00:30:15;15.73;;;6.90;;
57842;SDS011;43673;51.058;3.734;2022-08-20T00:32:49;20.65;;;6.85;;
57842;SDS011;43673;51.058;3.734;2022-08-20T00:35:20;26.45;;;8.82;;
57842;SDS011;43673;51.058;3.734;2022-08-20T00:37:50;23.27;;;7.07;;
57842;SDS011;43673;51.058;3.734;2022-08-20T00:40:18;24.88;;;8.85;;
57842;SDS011;43673;51.058;3.734;2022-08-20T00:42:49;33.17;;;8.32;;
57842;SDS011;43673;51.058;3.734;2022-08-20T00:45:17;23.33;;;7.35;;
57842;SDS011;43673;51.058;3.734;2022-08-20T00:47:45;20.77;;;7.05;;
57842;SDS011;43673;51.058;3.734;2022-08-20T00:50:23;18.80;;;7.40;;
57842;SDS011;43673;51.058;3.734;2022-08-20T00:53:01;17.90;;;7.45;;
57842;SDS011;43673;51.058;3.734;2022-08-20T00:55:30;21.15;;;7.10;;
57842;SDS011;43673;51.058;3.734;2022-08-20T00:57:58;18.50;;;8.13;;
57842;SDS011;43673;51.058;3.734;2022-08-20T01:03:07;22.60;;;7.03;;
57842;SDS011;43673;51.058;3.734;2022-08-20T01:05:36;22.65;;;7.70;;
57842;SDS011;43673;51.058;3.734;2022-08-20T01:08:05;20.02;;;8.45;;
57842;SDS011;43673;51.058;3.734;2022-08-20T01:10:34;22.17;;;8.38;;
57842;SDS011;43673;51.058;3.734;2022-08-20T01:13:03;22.20;;;7.18;;
57842;SDS011;43673;51.058;3.734;2022-08-20T01:15:35;26.65;;;8.20;;
57842;SDS011;43673;51.058;3.734;2022-08-20T01:18:04;22.23;;;7.20;;
57842;SDS011;43673;51.058;3.734;2022-08-20T01:20:39;28.13;;;8.07;;
57842;SDS011;43673;51.058;3.734;2022-08-20T01:28:49;21.00;;;7.97;;
57842;SDS011;43673;51.058;3.734;2022-08-20T01:31:32;32.50;;;8.70;;
57842;SDS011;43673;51.058;3.734;2022-08-20T01:34:01;25.23;;;7.75;;
57842;SDS011;43673;51.058;3.734;2022-08-20T01:36:39;18.90;;;7.18;;
57842;SDS011;43673;51.058;3.734;2022-08-20T01:39:13;30.52;;;8.60;;
57842;SDS011;43673;51.058;3.734;2022-08-20T01:41:51;25.55;;;8.77;;
57842;SDS011;43673;51.058;3.734;2022-08-20T01:44:36;20.65;;;7.85;;
57842;SDS011;43673;51.058;3.734;2022-08-20T01:47:23;28.95;;;7.00;;
57842;SDS011;43673;51.058;3.734;2022-08-20T01:49:51;30.73;;;7.97;;
57842;SDS011;43673;51.058;3.734;2022-08-20T01:52:32;19.80;;;8.27;;
57842;SDS011;43673;51.058;3.734;2022-08-20T01:55:05;30.95;;;9.27;;
57842;SDS011;43673;51.058;3.734;2022-08-20T01:57:32;18.60;;;8.00;;
57842;SDS011;43673;51.058;3.734;2022-08-20T02:00:00;25.92;;;9.55;;
57842;SDS011;43673;51.058;3.734;2022-08-20T02:02:26;31.23;;;9.30;;
57842;SDS011;43673;51.058;3.734;2022-08-20T02:04:52;22.42;;;8.27;;
57842;SDS011;43673;51.058;3.734;2022-08-20T02:07:20;29.30;;;9.13;;
57842;SDS011;43673;51.058;3.734;2022-08-20T02:09:48;23.88;;;8.60;;
57842;SDS011;43673;51.058;3.734;2022-08-20T02:12:14;24.80;;;8.38;;
57842;SDS011;43673;51.058;3.734;2022-08-20T02:14:48;23.38;;;8.52;;
57842;SDS011;43673;51.058;3.734;2022-08-20T02:17:16;30.50;;;8.90;;
57842;SDS011;43673;51.058;3.734;2022-08-20T02:19:54;24.42;;;9.10;;
57842;SDS011;43673;51.058;3.734;2022-08-20T02:22:26;26.25;;;8.63;;
57842;SDS011;43673;51.058;3.734;2022-08-20T02:24:59;28.17;;;9.25;;
57842;SDS011;43673;51.058;3.734;2022-08-20T02:27:25;28.83;;;9.77;;
57842;SDS011;43673;51.058;3.734;2022-08-20T02:29:51;28.35;;;9.90;;
57842;SDS011;43673;51.058;3.734;2022-08-20T02:32:18;26.33;;;8.82;;
57842;SDS011;43673;51.058;3.734;2022-08-20T02:34:44;27.95;;;8.48;;
57842;SDS011;43673;51.058;3.734;2022-08-20T02:37:10;28.05;;;9.02;;
57842;SDS011;43673;51.058;3.734;2022-08-20T02:39:40;24.20;;;9.05;;
57842;SDS011;43673;51.058;3.734;2022-08-20T02:42:06;28.38;;;9.88;;
57842;SDS011;43673;51.058;3.734;2022-08-20T02:44:32;27.92;;;8.90;;
57842;SDS011;43673;51.058;3.734;2022-08-20T02:46:57;21.58;;;8.52;;
57842;SDS011;43673;51.058;3.734;2022-08-20T02:49:24;26.58;;;8.95;;
57842;SDS011;43673;51.058;3.734;2022-08-20T02:51:49;37.55;;;11.25;;
57842;SDS011;43673;51.058;3.734;2022-08-20T02:54:15;27.63;;;9.65;;
57842;SDS011;43673;51.058;3.734;2022-08-20T02:56:42;36.55;;;10.55;;
57842;SDS011;43673;51.058;3.734;2022-08-20T02:59:08;23.33;;;10.07;;
57842;SDS011;43673;51.058;3.734;2022-08-20T03:01:34;21.58;;;8.68;;
57842;SDS011;43673;51.058;3.734;2022-08-20T03:04:00;31.45;;;10.35;;
57842;SDS011;43673;51.058;3.734;2022-08-20T03:06:27;27.83;;;11.35;;
57842;SDS011;43673;51.058;3.734;2022-08-20T03:08:53;25.40;;;10.00;;
57842;SDS011;43673;51.058;3.734;2022-08-20T03:11:18;37.88;;;11.25;;
57842;SDS011;43673;51.058;3.734;2022-08-20T03:13:45;26.40;;;10.88;;
57842;SDS011;43673;51.058;3.734;2022-08-20T06:01:58;15.93;;;8.23;;
57842;SDS011;43673;51.058;3.734;2022-08-20T06:07:13;17.75;;;8.80;;
57842;SDS011;43673;51.058;3.734;2022-08-20T06:17:12;11.48;;;7.88;;
57842;SDS011;43673;51.058;3.734;2022-08-20T06:20:15;15.15;;;7.95;;
57842;SDS011;43673;51.058;3.734;2022-08-20T06:26:32;14.32;;;8.20;;
57842;SDS011;43673;51.058;3.734;2022-08-20T06:32:31;17.95;;;8.23;;
57842;SDS011;43673;51.058;3.734;2022-08-20T06:34:57;15.07;;;7.90;;
57842;SDS011;43673;51.058;3.734;2022-08-20T06:37:31;10.40;;;6.65;;
57842;SDS011;43673;51.058;3.734;2022-08-20T06:42:32;20.55;;;8.95;;
57842;SDS011;43673;51.058;3.734;2022-08-20T06:45:04;11.88;;;7.28;;
57842;SDS011;43673;51.058;3.734;2022-08-20T06:47:30;16.83;;;9.10;;
57842;SDS011;43673;51.058;3.734;2022-08-20T06:50:13;13.57;;;7.43;;
57842;SDS011;43673;51.058;3.734;2022-08-20T06:52:44;13.95;;;6.88;;
57842;SDS011;43673;51.058;3.734;2022-08-20T06:55:14;12.48;;;7.75;;
57842;SDS011;43673;51.058;3.734;2022-08-20T06:57:44;12.73;;;7.70;;
57842;SDS011;43673;51.058;3.734;2022-08-20T07:00:19;11.75;;;8.07;;
57842;SDS011;43673;51.058;3.734;2022-08-20T07:02:45;14.70;;;6.90;;
57842;SDS011;43673;51.058;3.734;2022-08-20T07:05:12;12.25;;;6.55;;
57842;SDS011;43673;51.058;3.734;2022-08-20T07:07:43;14.60;;;6.68;;
57842;SDS011;43673;51.058;3.734;2022-08-20T07:10:14;11.32;;;6.72;;
57842;SDS011;43673;51.058;3.734;2022-08-20T07:12:47;15.32;;;8.00;;
57842;SDS011;43673;51.058;3.734;2022-08-20T07:15:23;13.73;;;6.83;;
57842;SDS011;43673;51.058;3.734;2022-08-20T07:17:53;11.32;;;6.18;;
57842;SDS011;43673;51.058;3.734;2022-08-20T07:20:25;14.80;;;5.85;;
57842;SDS011;43673;51.058;3.734;2022-08-20T07:22:55;12.50;;;6.72;;
57842;SDS011;43673;51.058;3.734;2022-08-20T07:25:24;12.93;;;6.78;;
57842;SDS011;43673;51.058;3.734;2022-08-20T07:27:59;17.80;;;7.18;;
57842;SDS011;43673;51.058;3.734;2022-08-20T07:30:29;13.40;;;6.07;;
57842;SDS011;43673;51.058;3.734;2022-08-20T07:33:13;11.13;;;5.72;;
57842;SDS011;43673;51.058;3.734;2022-08-20T07:35:40;12.20;;;6.60;;
57842;SDS011;43673;51.058;3.734;2022-08-20T07:38:06;9.02;;;5.68;;
57842;SDS011;43673;51.058;3.734;2022-08-20T07:40:37;15.60;;;7.18;;
57842;SDS011;43673;51.058;3.734;2022-08-20T07:43:03;8.00;;;5.10;;
57842;SDS011;43673;51.058;3.734;2022-08-20T07:45:29;15.00;;;6.53;;
57842;SDS011;43673;51.058;3.734;2022-08-20T07:48:00;11.25;;;5.15;;
57842;SDS011;43673;51.058;3.734;2022-08-20T07:50:35;9.93;;;5.70;;
57842;SDS011;43673;51.058;3.734;2022-08-20T07:53:02;9.40;;;5.10;;
57842;SDS011;43673;51.058;3.734;2022-08-20T07:55:28;15.30;;;6.55;;
57842;SDS011;43673;51.058;3.734;2022-08-20T07:57:54;11.23;;;5.72;;
57842;SDS011;43673;51.058;3.734;2022-08-20T08:00:22;14.23;;;6.57;;
57842;SDS011;43673;51.058;3.734;2022-08-20T08:02:48;16.00;;;6.65;;
57842;SDS011;43673;51.058;3.734;2022-08-20T08:05:14;13.63;;;6.68;;
57842;SDS011;43673;51.058;3.734;2022-08-20T08:07:41;11.90;;;5.72;;
57842;SDS011;43673;51.058;3.734;2022-08-20T08:10:08;15.68;;;5.85;;
57842;SDS011;43673;51.058;3.734;2022-08-20T08:12:40;13.77;;;5.80;;
57842;SDS011;43673;51.058;3.734;2022-08-20T08:15:12;9.13;;;5.15;;
57842;SDS011;43673;51.058;3.734;2022-08-20T08:17:42;9.82;;;4.65;;
57842;SDS011;43673;51.058;3.734;2022-08-20T08:20:10;10.00;;;5.22;;
57842;SDS011;43673;51.058;3.734;2022-08-20T08:22:37;10.18;;;4.57;;
57842;SDS011;43673;51.058;3.734;2022-08-20T08:25:06;11.57;;;5.40;;
57842;SDS011;43673;51.058;3.734;2022-08-20T08:27:32;12.18;;;4.93;;
57842;SDS011;43673;51.058;3.734;2022-08-20T08:29:59;12.43;;;4.90;;
57842;SDS011;43673;51.058;3.734;2022-08-20T08:32:27;13.07;;;5.63;;
57842;SDS011;43673;51.058;3.734;2022-08-20T08:34:55;10.05;;;5.22;;
57842;SDS011;43673;51.058;3.734;2022-08-20T08:37:21;7.22;;;4.45;;
57842;SDS011;43673;51.058;3.734;2022-08-20T08:39:47;6.10;;;4.32;;
57842;SDS011;43673;51.058;3.734;2022-08-20T08:42:23;7.93;;;4.38;;
57842;SDS011;43673;51.058;3.734;2022-08-20T08:44:51;11.50;;;4.68;;
57842;SDS011;43673;51.058;3.734;2022-08-20T08:47:28;9.13;;;4.05;;
57842;SDS011;43673;51.058;3.734;2022-08-20T08:49:56;8.02;;;4.28;;
57842;SDS011;43673;51.058;3.734;2022-08-20T08:52:23;7.68;;;3.55;;
57842;SDS011;43673;51.058;3.734;2022-08-20T08:54:52;9.35;;;3.95;;
57842;SDS011;43673;51.058;3.734;2022-08-20T08:57:20;9.48;;;3.65;;
57842;SDS011;43673;51.058;3.734;2022-08-20T08:59:47;8.50;;;3.45;;
57842;SDS011;43673;51.058;3.734;2022-08-20T09:02:21;10.80;;;3.97;;
57842;SDS011;43673;51.058;3.734;2022-08-20T09:04:50;9.43;;;3.77;;
57842;SDS011;43673;51.058;3.734;2022-08-20T09:07:20;12.52;;;4.32;;
57842;SDS011;43673;51.058;3.734;2022-08-20T09:09:48;7.15;;;4.10;;
57842;SDS011;43673;51.058;3.734;2022-08-20T09:12:17;10.45;;;3.90;;
57842;SDS011;43673;51.058;3.734;2022-08-20T09:14:46;10.38;;;3.95;;
57842;SDS011;43673;51.058;3.734;2022-08-20T09:17:13;6.60;;;3.35;;
57842;SDS011;43673;51.058;3.734;2022-08-20T09:19:40;9.95;;;3.30;;
57842;SDS011;43673;51.058;3.734;2022-08-20T09:22:09;7.30;;;4.18;;
57842;SDS011;43673;51.058;3.734;2022-08-20T09:24:37;10.40;;;4.10;;
57842;SDS011;43673;51.058;3.734;2022-08-20T09:27:03;12.25;;;4.50;;
57842;SDS011;43673;51.058;3.734;2022-08-20T09:29:29;5.80;;;3.85;;
57842;SDS011;43673;51.058;3.734;2022-08-20T09:32:10;9.77;;;4.97;;
57842;SDS011;43673;51.058;3.734;2022-08-20T09:37:06;10.88;;;5.50;;
57842;SDS011;43673;51.058;3.734;2022-08-20T09:39:32;12.38;;;6.25;;
57842;SDS011;43673;51.058;3.734;2022-08-20T09:44:35;10.77;;;4.70;;
57842;SDS011;43673;51.058;3.734;2022-08-20T09:47:01;6.55;;;3.70;;
57842;SDS011;43673;51.058;3.734;2022-08-20T09:49:27;10.48;;;5.43;;
57842;SDS011;43673;51.058;3.734;2022-08-20T09:51:52;9.95;;;4.13;;
57842;SDS011;43673;51.058;3.734;2022-08-20T09:54:18;9.05;;;3.90;;
57842;SDS011;43673;51.058;3.734;2022-08-20T09:56:45;8.15;;;3.35;;
57842;SDS011;43673;51.058;3.734;2022-08-20T09:59:11;8.88;;;4.88;;
57842;SDS011;43673;51.058;3.734;2022-08-20T10:01:39;8.05;;;3.25;;
57842;SDS011;43673;51.058;3.734;2022-08-20T10:04:05;7.88;;;3.33;;
57842;SDS011;43673;51.058;3.734;2022-08-20T10:06:30;9.10;;;4.38;;
57842;SDS011;43673;51.058;3.734;2022-08-20T10:08:56;11.55;;;4.38;;
57842;SDS011;43673;51.058;3.734;2022-08-20T10:11:22;8.68;;;3.97;;
57842;SDS011;43673;51.058;3.734;2022-08-20T10:13:48;8.50;;;3.15;;
57842;SDS011;43673;51.058;3.734;2022-08-20T10:16:13;9.13;;;2.92;;
57842;SDS011;43673;51.058;3.734;2022-08-20T10:18:39;10.23;;;3.17;;
57842;SDS011;43673;51.058;3.734;2022-08-20T10:21:09;6.72;;;3.13;;
57842;SDS011;43673;51.058;3.734;2022-08-20T10:23:36;5.78;;;2.63;;
57842;SDS011;43673;51.058;3.734;2022-08-20T10:26:01;5.50;;;2.40;;
57842;SDS011;43673;51.058;3.734;2022-08-20T10:28:27;7.88;;;2.60;;
57842;SDS011;43673;51.058;3.734;2022-08-20T10:30:53;8.27;;;2.85;;
57842;SDS011;43673;51.058;3.734;2022-08-20T10:33:19;4.53;;;3.20;;
57842;SDS011;43673;51.058;3.734;2022-08-20T10:35:44;4.80;;;2.65;;
57842;SDS011;43673;51.058;3.734;2022-08-20T10:38:10;4.70;;;3.30;;
57842;SDS011;43673;51.058;3.734;2022-08-20T10:40:36;5.75;;;2.25;;
57842;SDS011;43673;51.058;3.734;2022-08-20T10:43:02;5.68;;;3.42;;
57842;SDS011;43673;51.058;3.734;2022-08-20T10:45:27;7.97;;;3.45;;
57842;SDS011;43673;51.058;3.734;2022-08-20T10:47:53;5.53;;;3.30;;
57842;SDS011;43673;51.058;3.734;2022-08-20T10:50:19;5.78;;;2.90;;
57842;SDS011;43673;51.058;3.734;2022-08-20T10:52:44;8.43;;;3.75;;
57842;SDS011;43673;51.058;3.734;2022-08-20T10:55:11;5.18;;;2.90;;
57842;SDS011;43673;51.058;3.734;2022-08-20T10:57:38;9.25;;;3.08;;
57842;SDS011;43673;51.058;3.734;2022-08-20T11:00:05;7.90;;;4.47;;
57842;SDS011;43673;51.058;3.734;2022-08-20T11:02:34;9.10;;;4.13;;
57842;SDS011;43673;51.058;3.734;2022-08-20T11:05:00;7.18;;;4.93;;
57842;SDS011;43673;51.058;3.734;2022-08-20T11:07:27;9.70;;;3.58;;
57842;SDS011;43673;51.058;3.734;2022-08-20T11:09:55;9.20;;;3.50;;
57842;SDS011;43673;51.058;3.734;2022-08-20T11:12:21;8.90;;;3.22;;
57842;SDS011;43673;51.058;3.734;2022-08-20T11:14:48;6.75;;;3.05;;
57842;SDS011;43673;51.058;3.734;2022-08-20T11:17:19;10.35;;;4.07;;
57842;SDS011;43673;51.058;3.734;2022-08-20T11:19:46;8.60;;;4.22;;
57842;SDS011;43673;51.058;3.734;2022-08-20T11:22:11;8.80;;;4.00;;
57842;SDS011;43673;51.058;3.734;2022-08-20T11:24:38;5.95;;;2.80;;
57842;SDS011;43673;51.058;3.734;2022-08-20T11:27:06;7.63;;;2.35;;
57842;SDS011;43673;51.058;3.734;2022-08-20T11:29:33;5.15;;;2.88;;
57842;SDS011;43673;51.058;3.734;2022-08-20T11:31:59;8.48;;;3.65;;
57842;SDS011;43673;51.058;3.734;2022-08-20T11:34:25;8.35;;;3.70;;
57842;SDS011;43673;51.058;3.734;2022-08-20T11:36:51;7.63;;;3.40;;
57842;SDS011;43673;51.058;3.734;2022-08-20T11:39:17;6.00;;;3.40;;
57842;SDS011;43673;51.058;3.734;2022-08-20T11:41:43;7.68;;;3.42;;
57842;SDS011;43673;51.058;3.734;2022-08-20T11:44:10;5.95;;;3.30;;
57842;SDS011;43673;51.058;3.734;2022-08-20T11:46:37;7.57;;;3.03;;
57842;SDS011;43673;51.058;3.734;2022-08-20T11:49:03;8.90;;;3.13;;
57842;SDS011;43673;51.058;3.734;2022-08-20T11:51:28;7.63;;;2.63;;
57842;SDS011;43673;51.058;3.734;2022-08-20T11:53:54;10.82;;;4.07;;
57842;SDS011;43673;51.058;3.734;2022-08-20T11:56:20;7.53;;;3.88;;
57842;SDS011;43673;51.058;3.734;2022-08-20T11:58:46;4.97;;;3.17;;
57842;SDS011;43673;51.058;3.734;2022-08-20T12:01:12;4.95;;;3.15;;
57842;SDS011;43673;51.058;3.734;2022-08-20T12:03:37;7.18;;;3.53;;
57842;SDS011;43673;51.058;3.734;2022-08-20T12:06:03;7.90;;;3.85;;
57842;SDS011;43673;51.058;3.734;2022-08-20T12:08:29;6.75;;;3.65;;
57842;SDS011;43673;51.058;3.734;2022-08-20T12:10:55;6.63;;;3.80;;
57842;SDS011;43673;51.058;3.734;2022-08-20T12:13:25;7.57;;;4.45;;
57842;SDS011;43673;51.058;3.734;2022-08-20T12:16:09;7.90;;;4.60;;
57842;SDS011;43673;51.058;3.734;2022-08-20T12:18:34;8.02;;;4.20;;
57842;SDS011;43673;51.058;3.734;2022-08-20T12:21:00;9.93;;;5.28;;
57842;SDS011;43673;51.058;3.734;2022-08-20T12:23:26;7.75;;;4.50;;
57842;SDS011;43673;51.058;3.734;2022-08-20T12:25:51;10.30;;;4.68;;
57842;SDS011;43673;51.058;3.734;2022-08-20T12:28:18;6.18;;;3.08;;
57842;SDS011;43673;51.058;3.734;2022-08-20T12:30:43;7.70;;;3.78;;
57842;SDS011;43673;51.058;3.734;2022-08-20T12:33:09;8.65;;;4.03;;
57842;SDS011;43673;51.058;3.734;2022-08-20T12:35:35;9.48;;;3.88;;
57842;SDS011;43673;51.058;3.734;2022-08-20T12:38:02;14.90;;;3.95;;
57842;SDS011;43673;51.058;3.734;2022-08-20T12:40:29;13.75;;;4.85;;
57842;SDS011;43673;51.058;3.734;2022-08-20T12:42:56;7.95;;;4.10;;
57842;SDS011;43673;51.058;3.734;2022-08-20T12:45:21;6.50;;;3.97;;
57842;SDS011;43673;51.058;3.734;2022-08-20T12:47:47;14.63;;;5.18;;
57842;SDS011;43673;51.058;3.734;2022-08-20T12:50:22;7.97;;;3.78;;
57842;SDS011;43673;51.058;3.734;2022-08-20T12:52:49;6.80;;;3.60;;
57842;SDS011;43673;51.058;3.734;2022-08-20T12:55:17;7.18;;;3.03;;
57842;SDS011;43673;51.058;3.734;2022-08-20T12:57:44;7.63;;;2.50;;
57842;SDS011;43673;51.058;3.734;2022-08-20T13:00:16;10.55;;;3.97;;
57842;SDS011;43673;51.058;3.734;2022-08-20T13:02:47;7.47;;;3.38;;
57842;SDS011;43673;51.058;3.734;2022-08-20T13:05:14;6.90;;;3.45;;
57842;SDS011;43673;51.058;3.734;2022-08-20T13:07:41;10.18;;;3.90;;
57842;SDS011;43673;51.058;3.734;2022-08-20T13:10:11;6.32;;;3.08;;
57842;SDS011;43673;51.058;3.734;2022-08-20T13:12:39;6.38;;;2.65;;
57842;SDS011;43673;51.058;3.734;2022-08-20T13:15:05;5.80;;;3.17;;
57842;SDS011;43673;51.058;3.734;2022-08-20T13:17:31;5.38;;;2.83;;
57842;SDS011;43673;51.058;3.734;2022-08-20T13:19:57;4.78;;;2.45;;
57842;SDS011;43673;51.058;3.734;2022-08-20T13:22:23;8.07;;;3.88;;
57842;SDS011;43673;51.058;3.734;2022-08-20T13:24:48;8.18;;;3.08;;
57842;SDS011;43673;51.058;3.734;2022-08-20T13:27:15;4.63;;;2.70;;
57842;SDS011;43673;51.058;3.734;2022-08-20T13:29:46;5.07;;;2.50;;
57842;SDS011;43673;51.058;3.734;2022-08-20T13:32:16;6.32;;;3.20;;
57842;SDS011;43673;51.058;3.734;2022-08-20T13:34:42;9.38;;;3.58;;
57842;SDS011;43673;51.058;3.734;2022-08-20T13:37:15;4.70;;;2.47;;
57842;SDS011;43673;51.058;3.734;2022-08-20T13:39:45;5.72;;;2.88;;
57842;SDS011;43673;51.058;3.734;2022-08-20T13:42:11;7.15;;;2.90;;
57842;SDS011;43673;51.058;3.734;2022-08-20T13:44:38;6.57;;;2.97;;
57842;SDS011;43673;51.058;3.734;2022-08-20T13:49:57;9.75;;;3.38;;
57842;SDS011;43673;51.058;3.734;2022-08-20T13:52:32;10.20;;;3.13;;
57842;SDS011;43673;51.058;3.734;2022-08-20T13:54:58;7.47;;;2.33;;
57842;SDS011;43673;51.058;3.734;2022-08-20T13:57:24;4.93;;;1.95;;
57842;SDS011;43673;51.058;3.734;2022-08-20T13:59:51;4.78;;;2.25;;
57842;SDS011;43673;51.058;3.734;2022-08-20T14:02:19;6.37;;;2.50;;
57842;SDS011;43673;51.058;3.734;2022-08-20T14:04:46;4.22;;;2.42;;
57842;SDS011;43673;51.058;3.734;2022-08-20T14:07:16;5.07;;;1.98;;
57842;SDS011;43673;51.058;3.734;2022-08-20T14:09:45;4.38;;;2.60;;
57842;SDS011;43673;51.058;3.734;2022-08-20T14:12:30;4.55;;;2.00;;
57842;SDS011;43673;51.058;3.734;2022-08-20T14:14:56;12.20;;;3.63;;
57842;SDS011;43673;51.058;3.734;2022-08-20T14:17:41;5.15;;;2.00;;
57842;SDS011;43673;51.058;3.734;2022-08-20T14:20:15;10.68;;;2.50;;
57842;SDS011;43673;51.058;3.734;2022-08-20T14:22:43;8.63;;;2.78;;
57842;SDS011;43673;51.058;3.734;2022-08-20T14:25:11;4.78;;;2.47;;
57842;SDS011;43673;51.058;3.734;2022-08-20T14:27:39;5.07;;;2.37;;
57842;SDS011;43673;51.058;3.734;2022-08-20T14:30:06;7.30;;;2.00;;
57842;SDS011;43673;51.058;3.734;2022-08-20T14:32:34;4.88;;;1.80;;
57842;SDS011;43673;51.058;3.734;2022-08-20T14:35:00;5.72;;;2.15;;
57842;SDS011;43673;51.058;3.734;2022-08-20T14:37:28;4.95;;;2.53;;
57842;SDS011;43673;51.058;3.734;2022-08-20T14:39:56;3.72;;;2.22;;
57842;SDS011;43673;51.058;3.734;2022-08-20T14:42:25;6.05;;;2.30;;
57842;SDS011;43673;51.058;3.734;2022-08-20T14:44:52;6.38;;;2.20;;
57842;SDS011;43673;51.058;3.734;2022-08-20T14:49:58;5.05;;;2.15;;
57842;SDS011;43673;51.058;3.734;2022-08-20T14:52:27;4.68;;;2.55;;
57842;SDS011;43673;51.058;3.734;2022-08-20T16:05:10;7.00;;;3.20;;
57842;SDS011;43673;51.058;3.734;2022-08-20T16:13:19;5.68;;;2.70;;
57842;SDS011;43673;51.058;3.734;2022-08-20T16:16:01;9.55;;;3.70;;
57842;SDS011;43673;51.058;3.734;2022-08-20T16:18:37;4.93;;;2.35;;
57842;SDS011;43673;51.058;3.734;2022-08-20T16:21:05;6.40;;;2.35;;
57842;SDS011;43673;51.058;3.734;2022-08-20T16:23:36;6.57;;;2.25;;
57842;SDS011;43673;51.058;3.734;2022-08-20T16:32:11;9.05;;;3.25;;
57842;SDS011;43673;51.058;3.734;2022-08-20T16:37:35;9.73;;;3.60;;
57842;SDS011;43673;51.058;3.734;2022-08-20T16:42:49;6.63;;;3.08;;
57842;SDS011;43673;51.058;3.734;2022-08-20T16:45:20;7.03;;;2.85;;
57842;SDS011;43673;51.058;3.734;2022-08-20T16:47:51;5.25;;;2.90;;
57842;SDS011;43673;51.058;3.734;2022-08-20T16:50:25;7.90;;;2.78;;
57842;SDS011;43673;51.058;3.734;2022-08-20T16:52:57;6.38;;;2.95;;
57842;SDS011;43673;51.058;3.734;2022-08-20T16:55:23;8.60;;;4.30;;
57842;SDS011;43673;51.058;3.734;2022-08-20T16:57:49;7.20;;;3.05;;
57842;SDS011;43673;51.058;3.734;2022-08-20T17:02:55;9.70;;;4.70;;
57842;SDS011;43673;51.058;3.734;2022-08-20T17:05:24;9.50;;;4.47;;
57842;SDS011;43673;51.058;3.734;2022-08-20T17:07:53;8.20;;;4.10;;
57842;SDS011;43673;51.058;3.734;2022-08-20T17:10:26;9.68;;;3.85;;
57842;SDS011;43673;51.058;3.734;2022-08-20T17:15:28;10.85;;;3.80;;
57842;SDS011;43673;51.058;3.734;2022-08-20T17:17:57;7.30;;;2.80;;
57842;SDS011;43673;51.058;3.734;2022-08-20T17:20:52;11.82;;;4.15;;
57842;SDS011;43673;51.058;3.734;2022-08-20T17:23:23;7.22;;;3.42;;
57842;SDS011;43673;51.058;3.734;2022-08-20T17:25:54;8.90;;;3.42;;
57842;SDS011;43673;51.058;3.734;2022-08-20T17:28:29;11.10;;;3.83;;
57842;SDS011;43673;51.058;3.734;2022-08-20T17:30:55;7.18;;;3.17;;
57842;SDS011;43673;51.058;3.734;2022-08-20T17:35:54;7.95;;;3.53;;
57842;SDS011;43673;51.058;3.734;2022-08-20T17:38:36;5.47;;;2.50;;
57842;SDS011;43673;51.058;3.734;2022-08-20T17:41:12;8.85;;;4.45;;
57842;SDS011;43673;51.058;3.734;2022-08-20T17:43:43;5.43;;;3.40;;
57842;SDS011;43673;51.058;3.734;2022-08-20T17:46:10;10.77;;;3.67;;
57842;SDS011;43673;51.058;3.734;2022-08-20T17:48:43;8.10;;;3.88;;
57842;SDS011;43673;51.058;3.734;2022-08-20T17:53:42;7.97;;;4.07;;
57842;SDS011;43673;51.058;3.734;2022-08-20T17:56:17;10.32;;;3.92;;
57842;SDS011;43673;51.058;3.734;2022-08-20T17:58:54;10.48;;;3.50;;
57842;SDS011;43673;51.058;3.734;2022-08-20T18:01:27;6.95;;;4.00;;
57842;SDS011;43673;51.058;3.734;2022-08-20T18:03:53;7.30;;;3.50;;
57842;SDS011;43673;51.058;3.734;2022-08-20T18:23:20;7.57;;;3.45;;
57842;SDS011;43673;51.058;3.734;2022-08-20T18:25:58;8.77;;;4.18;;
57842;SDS011;43673;51.058;3.734;2022-08-20T18:31:32;9.75;;;4.03;;
57842;SDS011;43673;51.058;3.734;2022-08-20T18:34:15;12.15;;;7.57;;
57842;SDS011;43673;51.058;3.734;2022-08-20T18:37:02;12.43;;;6.40;;
57842;SDS011;43673;51.058;3.734;2022-08-20T18:39:32;8.18;;;4.65;;
57842;SDS011;43673;51.058;3.734;2022-08-20T18:42:04;5.80;;;4.25;;
57842;SDS011;43673;51.058;3.734;2022-08-20T18:44:47;10.93;;;5.38;;
57842;SDS011;43673;51.058;3.734;2022-08-20T18:50:17;13.55;;;7.82;;
57842;SDS011;43673;51.058;3.734;2022-08-20T18:52:50;11.85;;;6.57;;
57842;SDS011;43673;51.058;3.734;2022-08-20T19:00:38;8.40;;;4.05;;
57842;SDS011;43673;51.058;3.734;2022-08-20T19:08:22;17.35;;;6.60;;
57842;SDS011;43673;51.058;3.734;2022-08-20T19:11:02;9.25;;;4.82;;
57842;SDS011;43673;51.058;3.734;2022-08-20T19:16:08;8.75;;;3.83;;
57842;SDS011;43673;51.058;3.734;2022-08-20T19:18:41;8.32;;;3.45;;
57842;SDS011;43673;51.058;3.734;2022-08-20T19:21:11;10.15;;;4.22;;
57842;SDS011;43673;51.058;3.734;2022-08-20T19:23:45;9.30;;;3.53;;
57842;SDS011;43673;51.058;3.734;2022-08-20T19:26:17;13.35;;;6.22;;
57842;SDS011;43673;51.058;3.734;2022-08-20T19:28:46;9.07;;;4.35;;
57842;SDS011;43673;51.058;3.734;2022-08-20T19:31:20;11.88;;;4.65;;
57842;SDS011;43673;51.058;3.734;2022-08-20T19:36:23;10.57;;;4.50;;
57842;SDS011;43673;51.058;3.734;2022-08-20T19:38:50;9.93;;;5.43;;
57842;SDS011;43673;51.058;3.734;2022-08-20T19:41:24;9.57;;;5.80;;
57842;SDS011;43673;51.058;3.734;2022-08-20T19:43:53;8.77;;;5.05;;
57842;SDS011;43673;51.058;3.734;2022-08-20T19:46:22;9.57;;;5.35;;
57842;SDS011;43673;51.058;3.734;2022-08-20T19:54:26;10.98;;;5.90;;
57842;SDS011;43673;51.058;3.734;2022-08-20T19:56:56;9.00;;;4.88;;
57842;SDS011;43673;51.058;3.734;2022-08-20T19:59:24;9.80;;;5.45;;
57842;SDS011;43673;51.058;3.734;2022-08-20T20:01:51;12.88;;;5.05;;
57842;SDS011;43673;51.058;3.734;2022-08-20T20:04:24;12.00;;;4.50;;
57842;SDS011;43673;51.058;3.734;2022-08-20T20:06:51;9.15;;;4.10;;
57842;SDS011;43673;51.058;3.734;2022-08-20T20:09:21;14.55;;;5.22;;
57842;SDS011;43673;51.058;3.734;2022-08-20T20:11:57;10.68;;;4.80;;
57842;SDS011;43673;51.058;3.734;2022-08-20T20:14:28;9.43;;;3.65;;
57842;SDS011;43673;51.058;3.734;2022-08-20T20:16:56;9.10;;;4.30;;
57842;SDS011;43673;51.058;3.734;2022-08-20T20:19:22;10.88;;;3.92;;
57842;SDS011;43673;51.058;3.734;2022-08-20T20:21:49;12.13;;;5.50;;
57842;SDS011;43673;51.058;3.734;2022-08-20T20:24:26;14.50;;;5.57;;
57842;SDS011;43673;51.058;3.734;2022-08-20T20:26:54;7.35;;;4.85;;
57842;SDS011;43673;51.058;3.734;2022-08-20T20:29:22;9.98;;;5.05;;
57842;SDS011;43673;51.058;3.734;2022-08-20T20:31:58;14.52;;;5.55;;
57842;SDS011;43673;51.058;3.734;2022-08-20T20:34:35;12.70;;;5.05;;
57842;SDS011;43673;51.058;3.734;2022-08-20T20:39:29;11.70;;;4.20;;
57842;SDS011;43673;51.058;3.734;2022-08-20T20:42:05;8.57;;;4.78;;